sensor_id;sensor_type;location;lat;lon;timestamp;pressure;altitude;pressure_sealevel;temperature;humidity
74403;BME280;62837;51.082;13.744;2023-07-31T00:00:11;100068.41;;;18.55;60.14
74403;BME280;62837;51.082;13.744;2023-07-31T00:02:43;100068.20;;;18.49;60.90
74403;BME280;62837;51.082;13.744;2023-07-31T00:05:15;100065.09;;;18.54;60.81
74403;BME280;62837;51.082;13.744;2023-07-31T00:07:46;100062.99;;;18.58;60.80
74403;BME280;62837;51.082;13.744;2023-07-31T00:10:18;100062.04;;;18.62;60.75
74403;BME280;62837;51.082;13.744;2023-07-31T00:12:49;100063.94;;;18.68;60.64
74403;BME280;62837;51.082;13.744;2023-07-31T00:15:20;100061.84;;;18.71;60.37
74403;BME280;62837;51.082;13.744;2023-07-31T00:17:51;100056.05;;;18.73;60.32
74403;BME280;62837;51.082;13.744;2023-07-31T00:20:22;100059.41;;;18.76;60.02
74403;BME280;62837;51.082;13.744;2023-07-31T00:22:54;100059.08;;;18.74;59.81
74403;BME280;62837;51.082;13.744;2023-07-31T00:25:25;100053.37;;;18.73;59.83
74403;BME280;62837;51.082;13.744;2023-07-31T00:27:56;100057.63;;;18.74;59.55
74403;BME280;62837;51.082;13.744;2023-07-31T00:30:28;100053.52;;;18.73;59.68
74403;BME280;62837;51.082;13.744;2023-07-31T00:32:59;100056.24;;;18.76;59.64
74403;BME280;62837;51.082;13.744;2023-07-31T00:35:32;100055.30;;;18.80;59.42
74403;BME280;62837;51.082;13.744;2023-07-31T00:38:03;100054.95;;;18.82;59.35
74403;BME280;62837;51.082;13.744;2023-07-31T00:40:37;100052.10;;;18.84;59.25
74403;BME280;62837;51.082;13.744;2023-07-31T00:43:08;100051.64;;;18.83;59.12
74403;BME280;62837;51.082;13.744;2023-07-31T00:45:39;100048.85;;;18.83;59.26
74403;BME280;62837;51.082;13.744;2023-07-31T00:48:11;100049.10;;;18.80;59.17
74403;BME280;62837;51.082;13.744;2023-07-31T00:50:42;100045.85;;;18.76;58.70
74403;BME280;62837;51.082;13.744;2023-07-31T00:53:14;100048.90;;;18.62;58.70
74403;BME280;62837;51.082;13.744;2023-07-31T00:55:46;100047.95;;;18.54;59.58
74403;BME280;62837;51.082;13.744;2023-07-31T00:58:17;100046.63;;;18.55;59.74
74403;BME280;62837;51.082;13.744;2023-07-31T01:00:48;100045.55;;;18.57;59.26
74403;BME280;62837;51.082;13.744;2023-07-31T01:03:21;100046.55;;;18.54;59.27
74403;BME280;62837;51.082;13.744;2023-07-31T01:06:06;100046.33;;;18.51;59.19
74403;BME280;62837;51.082;13.744;2023-07-31T01:08:44;100041.21;;;18.51;59.56
74403;BME280;62837;51.082;13.744;2023-07-31T01:11:22;100039.89;;;18.54;59.54
74403;BME280;62837;51.082;13.744;2023-07-31T01:13:57;100034.92;;;18.58;59.39
74403;BME280;62837;51.082;13.744;2023-07-31T01:16:28;100030.92;;;18.59;58.96
74403;BME280;62837;51.082;13.744;2023-07-31T01:18:59;100027.73;;;18.61;58.98
74403;BME280;62837;51.082;13.744;2023-07-31T01:21:58;100022.09;;;18.52;58.76
74403;BME280;62837;51.082;13.744;2023-07-31T01:24:46;100029.41;;;18.53;59.21
74403;BME280;62837;51.082;13.744;2023-07-31T01:27:25;100021.64;;;18.52;58.54
74403;BME280;62837;51.082;13.744;2023-07-31T01:30:03;100020.27;;;18.47;58.90
74403;BME280;62837;51.082;13.744;2023-07-31T01:32:42;100020.09;;;18.48;58.94
74403;BME280;62837;51.082;13.744;2023-07-31T01:35:16;100026.30;;;18.50;59.21
74403;BME280;62837;51.082;13.744;2023-07-31T01:37:48;100023.34;;;18.56;59.13
74403;BME280;62837;51.082;13.744;2023-07-31T01:40:19;100019.88;;;18.49;59.39
74403;BME280;62837;51.082;13.744;2023-07-31T01:42:50;100016.77;;;18.44;59.56
74403;BME280;62837;51.082;13.744;2023-07-31T01:45:21;100015.30;;;18.45;59.10
74403;BME280;62837;51.082;13.744;2023-07-31T01:47:52;100013.73;;;18.45;58.40
74403;BME280;62837;51.082;13.744;2023-07-31T01:50:24;100020.16;;;18.46;58.84
74403;BME280;62837;51.082;13.744;2023-07-31T01:52:55;100014.74;;;18.51;58.77
74403;BME280;62837;51.082;13.744;2023-07-31T01:55:26;100013.94;;;18.57;58.85
74403;BME280;62837;51.082;13.744;2023-07-31T01:57:57;100009.68;;;18.62;58.49
74403;BME280;62837;51.082;13.744;2023-07-31T02:00:28;100012.17;;;18.63;58.46
74403;BME280;62837;51.082;13.744;2023-07-31T02:03:00;100005.34;;;18.66;58.54
74403;BME280;62837;51.082;13.744;2023-07-31T02:05:31;100003.14;;;18.65;57.58
74403;BME280;62837;51.082;13.744;2023-07-31T02:08:03;99999.92;;;18.63;57.51
74403;BME280;62837;51.082;13.744;2023-07-31T02:10:35;99996.66;;;18.63;57.58
74403;BME280;62837;51.082;13.744;2023-07-31T02:13:07;99999.65;;;18.61;57.38
74403;BME280;62837;51.082;13.744;2023-07-31T02:15:38;99998.90;;;18.62;57.68
74403;BME280;62837;51.082;13.744;2023-07-31T02:18:09;99997.95;;;18.65;57.69
74403;BME280;62837;51.082;13.744;2023-07-31T02:20:40;99998.59;;;18.70;57.27
74403;BME280;62837;51.082;13.744;2023-07-31T02:23:12;99997.34;;;18.73;57.27
74403;BME280;62837;51.082;13.744;2023-07-31T02:25:43;99997.39;;;18.77;57.00
74403;BME280;62837;51.082;13.744;2023-07-31T02:28:14;99995.25;;;18.78;56.80
74403;BME280;62837;51.082;13.744;2023-07-31T02:30:46;99995.45;;;18.77;56.79
74403;BME280;62837;51.082;13.744;2023-07-31T02:33:18;99994.83;;;18.79;56.96
74403;BME280;62837;51.082;13.744;2023-07-31T02:35:49;99993.33;;;18.80;56.45
74403;BME280;62837;51.082;13.744;2023-07-31T02:38:20;99992.27;;;18.79;56.46
74403;BME280;62837;51.082;13.744;2023-07-31T02:40:51;99999.59;;;18.80;56.84
74403;BME280;62837;51.082;13.744;2023-07-31T02:43:22;99998.96;;;18.84;56.69
74403;BME280;62837;51.082;13.744;2023-07-31T02:45:54;99993.73;;;18.87;56.57
74403;BME280;62837;51.082;13.744;2023-07-31T02:48:26;99990.35;;;18.91;56.34
74403;BME280;62837;51.082;13.744;2023-07-31T02:50:57;99988.73;;;18.89;55.77
74403;BME280;62837;51.082;13.744;2023-07-31T02:53:28;99987.44;;;18.85;56.33
74403;BME280;62837;51.082;13.744;2023-07-31T02:55:59;99987.77;;;18.87;56.44
74403;BME280;62837;51.082;13.744;2023-07-31T02:58:30;99985.71;;;18.87;56.13
74403;BME280;62837;51.082;13.744;2023-07-31T03:01:02;99984.80;;;18.87;56.03
74403;BME280;62837;51.082;13.744;2023-07-31T03:03:33;99987.33;;;18.85;56.21
74403;BME280;62837;51.082;13.744;2023-07-31T03:06:04;99990.98;;;18.86;56.60
74403;BME280;62837;51.082;13.744;2023-07-31T03:08:35;99990.77;;;18.91;57.68
74403;BME280;62837;51.082;13.744;2023-07-31T03:11:06;99990.84;;;19.02;58.22
74403;BME280;62837;51.082;13.744;2023-07-31T03:13:38;99996.97;;;19.11;58.21
74403;BME280;62837;51.082;13.744;2023-07-31T03:16:09;99998.16;;;19.18;58.16
74403;BME280;62837;51.082;13.744;2023-07-31T03:18:40;99999.42;;;19.24;57.87
74403;BME280;62837;51.082;13.744;2023-07-31T03:21:12;99999.42;;;19.27;57.97
74403;BME280;62837;51.082;13.744;2023-07-31T03:23:43;100002.71;;;19.31;57.39
74403;BME280;62837;51.082;13.744;2023-07-31T03:26:14;99998.56;;;19.19;57.33
74403;BME280;62837;51.082;13.744;2023-07-31T03:28:45;100005.57;;;19.14;58.19
74403;BME280;62837;51.082;13.744;2023-07-31T03:31:17;100010.01;;;19.21;58.28
74403;BME280;62837;51.082;13.744;2023-07-31T03:33:48;100011.77;;;19.23;58.20
74403;BME280;62837;51.082;13.744;2023-07-31T03:36:19;100008.89;;;19.26;57.87
74403;BME280;62837;51.082;13.744;2023-07-31T03:38:51;100006.58;;;19.27;57.96
74403;BME280;62837;51.082;13.744;2023-07-31T03:41:22;100005.45;;;19.29;57.64
74403;BME280;62837;51.082;13.744;2023-07-31T03:43:53;100006.41;;;19.29;58.23
74403;BME280;62837;51.082;13.744;2023-07-31T03:46:26;100010.22;;;19.35;58.25
74403;BME280;62837;51.082;13.744;2023-07-31T03:48:57;100008.09;;;19.41;58.46
74403;BME280;62837;51.082;13.744;2023-07-31T03:51:28;100013.88;;;19.40;58.48
74403;BME280;62837;51.082;13.744;2023-07-31T03:53:59;100006.39;;;19.33;58.86
74403;BME280;62837;51.082;13.744;2023-07-31T03:56:30;100004.41;;;19.27;59.18
74403;BME280;62837;51.082;13.744;2023-07-31T03:59:05;99998.70;;;19.19;59.60
74403;BME280;62837;51.082;13.744;2023-07-31T04:01:36;100005.40;;;19.13;60.12
74403;BME280;62837;51.082;13.744;2023-07-31T04:04:07;99999.40;;;19.10;60.22
74403;BME280;62837;51.082;13.744;2023-07-31T04:06:38;99991.92;;;19.11;60.31
74403;BME280;62837;51.082;13.744;2023-07-31T04:09:10;99996.14;;;19.09;60.35
74403;BME280;62837;51.082;13.744;2023-07-31T04:11:41;99999.98;;;19.08;60.53
74403;BME280;62837;51.082;13.744;2023-07-31T04:14:12;99991.98;;;19.10;60.76
74403;BME280;62837;51.082;13.744;2023-07-31T04:16:43;99990.63;;;19.17;60.64
74403;BME280;62837;51.082;13.744;2023-07-31T04:19:14;99993.70;;;19.19;60.69
74403;BME280;62837;51.082;13.744;2023-07-31T04:21:46;99995.09;;;19.20;60.57
74403;BME280;62837;51.082;13.744;2023-07-31T04:24:17;99990.23;;;19.12;61.05
74403;BME280;62837;51.082;13.744;2023-07-31T04:26:54;99987.35;;;19.03;61.35
74403;BME280;62837;51.082;13.744;2023-07-31T04:29:26;99987.87;;;19.04;61.52
74403;BME280;62837;51.082;13.744;2023-07-31T04:31:57;99982.13;;;18.99;62.02
74403;BME280;62837;51.082;13.744;2023-07-31T04:34:28;99984.69;;;19.01;61.94
74403;BME280;62837;51.082;13.744;2023-07-31T04:36:59;99976.52;;;19.04;62.11
74403;BME280;62837;51.082;13.744;2023-07-31T04:39:30;99975.72;;;19.12;62.28
74403;BME280;62837;51.082;13.744;2023-07-31T04:42:02;99971.60;;;19.15;62.35
74403;BME280;62837;51.082;13.744;2023-07-31T04:44:33;99970.77;;;19.18;62.37
74403;BME280;62837;51.082;13.744;2023-07-31T04:47:04;99964.73;;;19.13;62.42
74403;BME280;62837;51.082;13.744;2023-07-31T04:49:36;99959.08;;;19.21;62.37
74403;BME280;62837;51.082;13.744;2023-07-31T04:52:07;99960.89;;;19.33;62.15
74403;BME280;62837;51.082;13.744;2023-07-31T04:54:38;99959.13;;;19.45;61.95
74403;BME280;62837;51.082;13.744;2023-07-31T04:57:10;99956.07;;;19.51;62.23
74403;BME280;62837;51.082;13.744;2023-07-31T04:59:41;99957.36;;;19.45;62.07
74403;BME280;62837;51.082;13.744;2023-07-31T05:02:13;99954.44;;;19.42;62.14
74403;BME280;62837;51.082;13.744;2023-07-31T05:04:46;99952.66;;;19.40;61.94
74403;BME280;62837;51.082;13.744;2023-07-31T05:07:20;99951.90;;;19.30;62.45
74403;BME280;62837;51.082;13.744;2023-07-31T05:10:00;99951.38;;;19.32;62.50
74403;BME280;62837;51.082;13.744;2023-07-31T05:12:31;99948.02;;;19.40;62.38
74403;BME280;62837;51.082;13.744;2023-07-31T05:15:02;99949.49;;;19.52;62.13
74403;BME280;62837;51.082;13.744;2023-07-31T05:17:34;99945.89;;;19.53;62.11
74403;BME280;62837;51.082;13.744;2023-07-31T05:20:07;99942.36;;;19.47;62.29
74403;BME280;62837;51.082;13.744;2023-07-31T05:22:38;99940.85;;;19.43;62.16
74403;BME280;62837;51.082;13.744;2023-07-31T05:25:10;99940.72;;;19.36;62.55
74403;BME280;62837;51.082;13.744;2023-07-31T05:27:41;99940.20;;;19.31;62.65
74403;BME280;62837;51.082;13.744;2023-07-31T05:30:16;99938.66;;;19.36;62.47
74403;BME280;62837;51.082;13.744;2023-07-31T05:32:47;99936.61;;;19.37;62.58
74403;BME280;62837;51.082;13.744;2023-07-31T05:35:18;99932.98;;;19.41;62.51
74403;BME280;62837;51.082;13.744;2023-07-31T05:37:50;99933.83;;;19.39;62.62
74403;BME280;62837;51.082;13.744;2023-07-31T05:40:21;99927.43;;;19.42;62.62
74403;BME280;62837;51.082;13.744;2023-07-31T05:42:52;99929.90;;;19.42;62.56
74403;BME280;62837;51.082;13.744;2023-07-31T05:45:24;99933.08;;;19.38;62.52
74403;BME280;62837;51.082;13.744;2023-07-31T05:47:56;99935.02;;;19.35;62.43
74403;BME280;62837;51.082;13.744;2023-07-31T05:50:27;99931.27;;;19.33;62.72
74403;BME280;62837;51.082;13.744;2023-07-31T05:52:58;99920.15;;;19.38;62.85
74403;BME280;62837;51.082;13.744;2023-07-31T05:55:29;99922.95;;;19.45;62.81
74403;BME280;62837;51.082;13.744;2023-07-31T05:58:01;99927.09;;;19.55;62.76
74403;BME280;62837;51.082;13.744;2023-07-31T06:00:32;99928.30;;;19.60;62.69
74403;BME280;62837;51.082;13.744;2023-07-31T06:03:03;99928.05;;;19.65;62.67
74403;BME280;62837;51.082;13.744;2023-07-31T06:05:34;99928.14;;;19.69;62.41
74403;BME280;62837;51.082;13.744;2023-07-31T06:08:05;99923.40;;;19.63;62.53
74403;BME280;62837;51.082;13.744;2023-07-31T06:10:36;99919.27;;;19.60;62.47
74403;BME280;62837;51.082;13.744;2023-07-31T06:13:21;99915.55;;;19.59;62.61
74403;BME280;62837;51.082;13.744;2023-07-31T06:15:52;99914.75;;;19.55;62.67
74403;BME280;62837;51.082;13.744;2023-07-31T06:18:24;99923.25;;;19.51;62.90
74403;BME280;62837;51.082;13.744;2023-07-31T06:20:55;99923.41;;;19.53;63.03
74403;BME280;62837;51.082;13.744;2023-07-31T06:23:26;99918.66;;;19.55;62.80
74403;BME280;62837;51.082;13.744;2023-07-31T06:25:57;99921.46;;;19.59;62.80
74403;BME280;62837;51.082;13.744;2023-07-31T06:28:30;99920.32;;;19.60;62.68
74403;BME280;62837;51.082;13.744;2023-07-31T06:31:01;99920.61;;;19.55;62.52
74403;BME280;62837;51.082;13.744;2023-07-31T06:33:32;99922.20;;;19.56;62.60
74403;BME280;62837;51.082;13.744;2023-07-31T06:36:04;99920.91;;;19.57;62.61
74403;BME280;62837;51.082;13.744;2023-07-31T06:38:35;99924.16;;;19.59;62.56
74403;BME280;62837;51.082;13.744;2023-07-31T06:41:07;99927.38;;;19.61;62.52
74403;BME280;62837;51.082;13.744;2023-07-31T06:43:38;99918.46;;;19.59;62.17
74403;BME280;62837;51.082;13.744;2023-07-31T06:46:10;99920.85;;;19.46;62.47
74403;BME280;62837;51.082;13.744;2023-07-31T06:48:41;99926.90;;;19.27;63.10
74403;BME280;62837;51.082;13.744;2023-07-31T06:51:12;99920.63;;;19.15;63.42
74403;BME280;62837;51.082;13.744;2023-07-31T06:53:43;99917.30;;;19.09;64.05
74403;BME280;62837;51.082;13.744;2023-07-31T06:56:15;99923.71;;;19.03;64.65
74403;BME280;62837;51.082;13.744;2023-07-31T06:58:46;99918.20;;;18.99;64.97
74403;BME280;62837;51.082;13.744;2023-07-31T07:01:17;99919.00;;;18.97;65.21
74403;BME280;62837;51.082;13.744;2023-07-31T07:03:48;99923.44;;;18.94;65.18
74403;BME280;62837;51.082;13.744;2023-07-31T07:06:21;99924.05;;;18.90;65.44
74403;BME280;62837;51.082;13.744;2023-07-31T07:08:52;99924.05;;;18.88;65.70
74403;BME280;62837;51.082;13.744;2023-07-31T07:11:24;99920.58;;;18.85;65.85
74403;BME280;62837;51.082;13.744;2023-07-31T07:13:55;99926.02;;;18.83;65.88
74403;BME280;62837;51.082;13.744;2023-07-31T07:16:28;99929.02;;;18.83;66.35
74403;BME280;62837;51.082;13.744;2023-07-31T07:18:59;99924.48;;;18.83;66.31
74403;BME280;62837;51.082;13.744;2023-07-31T07:21:33;99926.91;;;18.86;66.48
74403;BME280;62837;51.082;13.744;2023-07-31T07:24:05;99925.39;;;18.88;66.37
74403;BME280;62837;51.082;13.744;2023-07-31T07:26:36;99927.44;;;18.91;65.44
74403;BME280;62837;51.082;13.744;2023-07-31T07:29:08;99922.17;;;18.92;65.70
74403;BME280;62837;51.082;13.744;2023-07-31T07:31:40;99923.02;;;18.97;65.69
74403;BME280;62837;51.082;13.744;2023-07-31T07:34:11;99926.61;;;19.02;65.66
74403;BME280;62837;51.082;13.744;2023-07-31T07:36:43;99920.24;;;19.05;65.57
74403;BME280;62837;51.082;13.744;2023-07-31T07:39:14;99919.89;;;19.10;65.27
74403;BME280;62837;51.082;13.744;2023-07-31T07:41:45;99915.39;;;19.15;65.11
74403;BME280;62837;51.082;13.744;2023-07-31T07:44:16;99919.52;;;19.24;64.98
74403;BME280;62837;51.082;13.744;2023-07-31T07:46:47;99910.54;;;19.28;65.02
74403;BME280;62837;51.082;13.744;2023-07-31T07:49:18;99919.23;;;19.31;64.88
74403;BME280;62837;51.082;13.744;2023-07-31T07:51:52;99912.02;;;19.39;64.62
74403;BME280;62837;51.082;13.744;2023-07-31T07:54:23;99918.47;;;19.52;64.27
74403;BME280;62837;51.082;13.744;2023-07-31T07:56:54;99916.57;;;19.67;63.67
74403;BME280;62837;51.082;13.744;2023-07-31T07:59:25;99919.66;;;19.75;63.30
74403;BME280;62837;51.082;13.744;2023-07-31T08:01:56;99924.27;;;19.84;62.98
74403;BME280;62837;51.082;13.744;2023-07-31T08:04:27;99928.10;;;19.93;62.85
74403;BME280;62837;51.082;13.744;2023-07-31T08:06:58;99924.82;;;20.02;62.15
74403;BME280;62837;51.082;13.744;2023-07-31T08:09:29;99925.04;;;20.09;62.05
74403;BME280;62837;51.082;13.744;2023-07-31T08:12:00;99921.75;;;20.13;61.73
74403;BME280;62837;51.082;13.744;2023-07-31T08:14:31;99926.02;;;20.15;61.46
74403;BME280;62837;51.082;13.744;2023-07-31T08:17:03;99926.41;;;20.21;61.26
74403;BME280;62837;51.082;13.744;2023-07-31T08:19:34;99921.02;;;20.24;61.12
74403;BME280;62837;51.082;13.744;2023-07-31T08:22:06;99933.10;;;20.30;61.02
74403;BME280;62837;51.082;13.744;2023-07-31T08:24:37;99925.54;;;20.32;61.02
74403;BME280;62837;51.082;13.744;2023-07-31T08:27:09;99927.08;;;20.38;60.80
74403;BME280;62837;51.082;13.744;2023-07-31T08:29:39;99929.17;;;20.36;60.77
74403;BME280;62837;51.082;13.744;2023-07-31T08:32:10;99926.97;;;20.34;60.90
74403;BME280;62837;51.082;13.744;2023-07-31T08:34:41;99931.65;;;20.27;60.75
74403;BME280;62837;51.082;13.744;2023-07-31T08:37:13;99925.11;;;20.14;60.13
74403;BME280;62837;51.082;13.744;2023-07-31T08:39:44;99925.31;;;20.01;60.11
74403;BME280;62837;51.082;13.744;2023-07-31T08:42:15;99932.70;;;19.91;60.33
74403;BME280;62837;51.082;13.744;2023-07-31T08:44:46;99928.76;;;19.83;60.79
74403;BME280;62837;51.082;13.744;2023-07-31T08:47:18;99925.64;;;19.76;60.57
74403;BME280;62837;51.082;13.744;2023-07-31T08:49:48;99925.52;;;19.68;60.47
74403;BME280;62837;51.082;13.744;2023-07-31T08:52:19;99926.77;;;19.64;60.71
74403;BME280;62837;51.082;13.744;2023-07-31T08:54:50;99928.56;;;19.60;60.86
74403;BME280;62837;51.082;13.744;2023-07-31T08:57:21;99926.36;;;19.58;60.61
74403;BME280;62837;51.082;13.744;2023-07-31T08:59:54;99923.38;;;19.55;60.71
74403;BME280;62837;51.082;13.744;2023-07-31T09:02:28;99926.08;;;19.55;61.02
74403;BME280;62837;51.082;13.744;2023-07-31T09:05:02;99929.64;;;19.55;61.01
74403;BME280;62837;51.082;13.744;2023-07-31T09:07:35;99931.64;;;19.53;60.96
74403;BME280;62837;51.082;13.744;2023-07-31T09:10:08;99931.45;;;19.52;61.01
74403;BME280;62837;51.082;13.744;2023-07-31T09:12:40;99934.63;;;19.49;60.96
74403;BME280;62837;51.082;13.744;2023-07-31T09:15:12;99928.98;;;19.47;60.97
74403;BME280;62837;51.082;13.744;2023-07-31T09:18:02;99928.13;;;19.46;61.18
74403;BME280;62837;51.082;13.744;2023-07-31T09:20:34;99925.80;;;19.43;60.91
74403;BME280;62837;51.082;13.744;2023-07-31T09:23:09;99922.05;;;19.41;61.07
74403;BME280;62837;51.082;13.744;2023-07-31T09:25:43;99921.73;;;19.41;61.10
74403;BME280;62837;51.082;13.744;2023-07-31T09:28:14;99918.08;;;19.41;60.96
74403;BME280;62837;51.082;13.744;2023-07-31T09:30:48;99919.50;;;19.42;60.96
74403;BME280;62837;51.082;13.744;2023-07-31T09:33:20;99910.18;;;19.44;61.14
74403;BME280;62837;51.082;13.744;2023-07-31T09:35:51;99910.31;;;19.46;61.26
74403;BME280;62837;51.082;13.744;2023-07-31T09:38:22;99903.86;;;19.49;60.69
74403;BME280;62837;51.082;13.744;2023-07-31T09:40:55;99902.31;;;19.50;60.74
74403;BME280;62837;51.082;13.744;2023-07-31T09:43:26;99900.35;;;19.54;60.98
74403;BME280;62837;51.082;13.744;2023-07-31T09:45:58;99900.25;;;19.57;61.12
74403;BME280;62837;51.082;13.744;2023-07-31T09:48:30;99897.15;;;19.59;60.73
74403;BME280;62837;51.082;13.744;2023-07-31T09:51:05;99893.25;;;19.59;60.55
74403;BME280;62837;51.082;13.744;2023-07-31T09:53:38;99893.61;;;19.61;60.49
74403;BME280;62837;51.082;13.744;2023-07-31T09:56:09;99897.23;;;19.64;60.31
74403;BME280;62837;51.082;13.744;2023-07-31T09:58:41;99898.24;;;19.67;60.32
74403;BME280;62837;51.082;13.744;2023-07-31T10:01:12;99901.11;;;19.70;60.46
74403;BME280;62837;51.082;13.744;2023-07-31T10:03:46;99898.27;;;19.73;60.51
74403;BME280;62837;51.082;13.744;2023-07-31T10:06:17;99899.48;;;19.77;60.50
74403;BME280;62837;51.082;13.744;2023-07-31T10:08:52;99893.14;;;19.81;60.56
74403;BME280;62837;51.082;13.744;2023-07-31T10:11:26;99893.88;;;19.84;60.17
74403;BME280;62837;51.082;13.744;2023-07-31T10:13:59;99884.52;;;19.85;59.81
74403;BME280;62837;51.082;13.744;2023-07-31T10:16:31;99881.84;;;19.86;59.83
74403;BME280;62837;51.082;13.744;2023-07-31T10:19:01;99878.05;;;19.85;59.68
74403;BME280;62837;51.082;13.744;2023-07-31T10:21:32;99881.09;;;19.89;60.08
74403;BME280;62837;51.082;13.744;2023-07-31T10:24:06;99877.95;;;19.91;59.76
74403;BME280;62837;51.082;13.744;2023-07-31T10:26:39;99866.91;;;19.93;59.38
74403;BME280;62837;51.082;13.744;2023-07-31T10:29:12;99865.27;;;19.94;59.62
74403;BME280;62837;51.082;13.744;2023-07-31T10:31:44;99862.05;;;19.97;59.60
74403;BME280;62837;51.082;13.744;2023-07-31T10:34:17;99862.30;;;19.99;59.38
74403;BME280;62837;51.082;13.744;2023-07-31T10:36:48;99863.48;;;20.02;59.48
74403;BME280;62837;51.082;13.744;2023-07-31T10:39:38;99860.55;;;20.04;59.41
74403;BME280;62837;51.082;13.744;2023-07-31T10:42:14;99860.27;;;20.09;59.66
74403;BME280;62837;51.082;13.744;2023-07-31T10:44:49;99855.96;;;20.15;59.95
74403;BME280;62837;51.082;13.744;2023-07-31T10:47:22;99852.66;;;20.22;59.39
74403;BME280;62837;51.082;13.744;2023-07-31T10:49:53;99849.56;;;20.28;58.95
74403;BME280;62837;51.082;13.744;2023-07-31T10:52:42;99845.34;;;20.33;58.80
74403;BME280;62837;51.082;13.744;2023-07-31T10:55:27;99840.40;;;20.35;58.63
74403;BME280;62837;51.082;13.744;2023-07-31T10:58:06;99842.13;;;20.41;58.90
74403;BME280;62837;51.082;13.744;2023-07-31T11:00:40;99841.68;;;20.44;58.85
74403;BME280;62837;51.082;13.744;2023-07-31T11:03:13;99841.98;;;20.47;58.59
74403;BME280;62837;51.082;13.744;2023-07-31T11:05:50;99839.33;;;20.48;58.78
74403;BME280;62837;51.082;13.744;2023-07-31T11:08:24;99840.75;;;20.52;59.03
74403;BME280;62837;51.082;13.744;2023-07-31T11:11:08;99835.45;;;20.57;58.92
74403;BME280;62837;51.082;13.744;2023-07-31T11:13:44;99834.76;;;20.64;58.89
74403;BME280;62837;51.082;13.744;2023-07-31T11:16:18;99829.13;;;20.69;58.73
74403;BME280;62837;51.082;13.744;2023-07-31T11:18:50;99827.71;;;20.71;58.43
74403;BME280;62837;51.082;13.744;2023-07-31T11:21:24;99828.71;;;20.72;58.53
74403;BME280;62837;51.082;13.744;2023-07-31T11:23:57;99821.20;;;20.72;58.12
74403;BME280;62837;51.082;13.744;2023-07-31T11:26:28;99825.41;;;20.71;58.30
74403;BME280;62837;51.082;13.744;2023-07-31T11:29:00;99821.96;;;20.71;58.83
74403;BME280;62837;51.082;13.744;2023-07-31T11:31:31;99829.13;;;20.69;59.18
74403;BME280;62837;51.082;13.744;2023-07-31T11:34:08;99833.11;;;20.66;59.26
74403;BME280;62837;51.082;13.744;2023-07-31T11:36:40;99828.51;;;20.65;59.43
74403;BME280;62837;51.082;13.744;2023-07-31T11:39:12;99829.52;;;20.65;59.48
74403;BME280;62837;51.082;13.744;2023-07-31T11:41:43;99827.02;;;20.66;59.88
74403;BME280;62837;51.082;13.744;2023-07-31T11:44:14;99820.13;;;20.69;59.85
74403;BME280;62837;51.082;13.744;2023-07-31T11:46:59;99815.35;;;20.76;59.42
74403;BME280;62837;51.082;13.744;2023-07-31T11:49:32;99812.05;;;20.85;60.09
74403;BME280;62837;51.082;13.744;2023-07-31T11:52:08;99807.23;;;20.97;60.40
74403;BME280;62837;51.082;13.744;2023-07-31T11:54:40;99800.28;;;21.10;60.11
74403;BME280;62837;51.082;13.744;2023-07-31T11:57:12;99800.49;;;21.22;59.67
74403;BME280;62837;51.082;13.744;2023-07-31T11:59:44;99796.59;;;21.33;59.21
74403;BME280;62837;51.082;13.744;2023-07-31T12:02:15;99790.59;;;21.41;59.00
74403;BME280;62837;51.082;13.744;2023-07-31T12:04:48;99785.46;;;21.51;59.01
74403;BME280;62837;51.082;13.744;2023-07-31T12:07:19;99781.70;;;21.62;59.03
74403;BME280;62837;51.082;13.744;2023-07-31T12:09:54;99775.64;;;21.74;59.06
74403;BME280;62837;51.082;13.744;2023-07-31T12:12:27;99775.56;;;21.86;58.26
74403;BME280;62837;51.082;13.744;2023-07-31T12:14:59;99773.84;;;22.01;58.08
74403;BME280;62837;51.082;13.744;2023-07-31T12:17:31;99768.27;;;22.16;57.43
74403;BME280;62837;51.082;13.744;2023-07-31T12:20:06;99760.40;;;22.28;56.54
74403;BME280;62837;51.082;13.744;2023-07-31T12:22:37;99762.00;;;22.41;55.97
74403;BME280;62837;51.082;13.744;2023-07-31T12:25:16;99754.99;;;22.50;55.37
74403;BME280;62837;51.082;13.744;2023-07-31T12:27:47;99752.57;;;22.59;55.57
74403;BME280;62837;51.082;13.744;2023-07-31T12:30:31;99750.86;;;22.69;55.26
74403;BME280;62837;51.082;13.744;2023-07-31T12:33:14;99740.20;;;22.73;54.99
74403;BME280;62837;51.082;13.744;2023-07-31T12:35:47;99735.66;;;22.74;54.85
74403;BME280;62837;51.082;13.744;2023-07-31T12:38:18;99735.95;;;22.79;54.66
74403;BME280;62837;51.082;13.744;2023-07-31T12:40:49;99734.38;;;22.82;54.45
74403;BME280;62837;51.082;13.744;2023-07-31T12:43:20;99726.46;;;22.86;53.81
74403;BME280;62837;51.082;13.744;2023-07-31T12:45:53;99720.44;;;22.88;52.92
74403;BME280;62837;51.082;13.744;2023-07-31T12:48:26;99716.47;;;22.89;52.92
74403;BME280;62837;51.082;13.744;2023-07-31T12:50:58;99716.40;;;22.90;53.03
74403;BME280;62837;51.082;13.744;2023-07-31T12:53:29;99700.84;;;22.89;52.12
74403;BME280;62837;51.082;13.744;2023-07-31T12:56:00;99709.93;;;22.90;51.83
74403;BME280;62837;51.082;13.744;2023-07-31T12:58:31;99706.77;;;22.92;51.54
74403;BME280;62837;51.082;13.744;2023-07-31T13:01:02;99698.45;;;22.95;51.26
74403;BME280;62837;51.082;13.744;2023-07-31T13:03:34;99692.83;;;22.97;51.52
74403;BME280;62837;51.082;13.744;2023-07-31T13:06:05;99690.11;;;23.01;51.57
74403;BME280;62837;51.082;13.744;2023-07-31T13:08:37;99689.02;;;23.05;50.59
74403;BME280;62837;51.082;13.744;2023-07-31T13:11:08;99692.02;;;23.03;50.13
74403;BME280;62837;51.082;13.744;2023-07-31T13:13:39;99687.27;;;23.03;50.29